Time;durP1;ratioP1;P1;durP2;ratioP2;P2;SDS_P1;SDS_P2;PMS_P1;PMS_P2;Temp;Humidity;BMP_temperature;BMP_pressure;BME280_temperature;BME280_humidity;BME280_pressure;Samples;Min_cycle;Max_cycle;Signal;HPM_P1;HPM_P2
2023/06/05 00:00:39;;;;;;;8.98;2.20;;;;;;;16.22;97.55;100590.06;5005754;28;20038;-21
2023/06/05 00:03:04;;;;;;;11.30;2.97;;;;;;;16.42;96.05;100598.47;5005573;28;20416;-19
2023/06/05 00:05:31;;;;;;;7.32;2.10;;;;;;;16.30;96.96;100586.97;5005002;28;20544;-19
2023/06/05 00:07:56;;;;;;;5.93;2.22;;;;;;;16.15;97.27;100579.47;5006011;28;20042;-18
2023/06/05 00:10:22;;;;;;;5.28;2.28;;;;;;;16.31;95.33;100575.16;5005690;28;20037;-18
2023/06/05 00:12:48;;;;;;;8.50;2.30;;;;;;;16.27;95.29;100574.00;5005480;28;20032;-20
2023/06/05 00:15:13;;;;;;;11.10;2.63;;;;;;;16.22;95.60;100584.69;5005412;28;20026;-19
2023/06/05 00:17:38;;;;;;;8.98;2.47;;;;;;;16.10;96.13;100567.78;5005751;28;20022;-18
2023/06/05 00:20:05;;;;;;;7.35;2.30;;;;;;;16.31;94.60;100575.16;5005293;28;20034;-21
2023/06/05 00:22:31;;;;;;;6.30;2.40;;;;;;;16.41;90.79;100583.38;5005384;28;20092;-18
2023/06/05 00:24:57;;;;;;;6.53;2.47;;;;;;;16.13;90.96;100586.16;5005693;28;20014;-18
2023/06/05 00:27:22;;;;;;;6.25;2.25;;;;;;;16.23;90.57;100586.31;5005263;28;20747;-19
2023/06/05 00:29:49;;;;;;;8.82;2.95;;;;;;;15.89;91.37;100570.13;5005346;28;20555;-18
2023/06/05 00:32:15;;;;;;;9.43;2.15;;;;;;;16.04;90.53;100573.09;5004331;28;20061;-19
2023/06/05 00:34:40;;;;;;;7.38;2.25;;;;;;;15.99;90.07;100559.53;5005269;28;20070;-18
2023/06/05 00:37:06;;;;;;;11.20;2.83;;;;;;;15.66;92.88;100576.41;5004751;28;20034;-18
2023/06/05 00:39:32;;;;;;;4.65;2.15;;;;;;;15.59;93.98;100559.56;5004819;28;20037;-18
2023/06/05 00:41:58;;;;;;;5.60;1.98;;;;;;;15.61;96.08;100579.81;5004937;28;20041;-16
2023/06/05 00:44:24;;;;;;;10.98;3.15;;;;;;;15.51;95.58;100576.94;5005063;28;20037;-19
2023/06/05 00:46:51;;;;;;;9.32;2.42;;;;;;;15.65;95.42;100572.91;5004983;28;20639;-20
2023/06/05 00:49:18;;;;;;;8.10;2.53;;;;;;;15.66;95.66;100569.13;5004621;28;20025;-18
2023/06/05 00:51:45;;;;;;;9.10;2.58;;;;;;;15.53;96.16;100573.97;5004977;28;20034;-19
2023/06/05 00:54:11;;;;;;;8.90;2.75;;;;;;;15.40;98.51;100575.88;5004802;28;20511;-18
2023/06/05 00:56:37;;;;;;;9.82;2.35;;;;;;;15.50;98.28;100575.28;5005055;28;20072;-18
2023/06/05 00:59:03;;;;;;;6.65;2.40;;;;;;;15.59;97.79;100576.53;5004694;28;20133;-21
2023/06/05 01:01:29;;;;;;;8.00;2.45;;;;;;;15.40;98.61;100573.19;5005301;28;20037;-18
2023/06/05 01:03:57;;;;;;;7.18;2.40;;;;;;;15.44;98.92;100578.91;5005275;28;20029;-19
2023/06/05 01:06:28;;;;;;;7.68;2.50;;;;;;;15.54;97.73;100552.25;5004773;28;20030;-18
2023/06/05 01:08:56;;;;;;;9.73;2.53;;;;;;;15.61;98.03;100569.06;5004834;28;20148;-18
2023/06/05 01:11:25;;;;;;;9.75;3.10;;;;;;;15.53;98.84;100563.22;5004604;28;20030;-18
2023/06/05 01:14:06;;;;;;;11.38;3.63;;;;;;;15.53;98.80;100566.75;5004821;28;21510;-18
2023/06/05 01:16:34;;;;;;;9.55;2.97;;;;;;;15.46;98.75;100555.31;5007279;28;20034;-19
2023/06/05 01:19:03;;;;;;;8.23;3.28;;;;;;;15.82;97.17;100564.09;5008857;28;20041;-18
2023/06/05 01:21:31;;;;;;;13.23;3.55;;;;;;;15.71;96.68;100559.53;5008775;28;20030;-18
2023/06/05 01:23:57;;;;;;;;;;;;;;;15.85;95.75;100558.22;5009291;28;20097;-18
2023/06/05 01:26:30;;;;;;;9.75;3.97;;;;;;;15.82;96.18;100564.91;5008593;28;20064;-21
2023/06/05 01:28:58;;;;;;;13.65;4.22;;;;;;;15.92;95.80;100564.28;5008839;28;20034;-18
2023/06/05 01:31:26;;;;;;;12.40;4.53;;;;;;;16.14;94.82;100561.69;5008541;28;20037;-18
2023/06/05 01:34:01;;;;;;;;;;;;;;;15.86;96.35;100565.25;5008891;28;20117;-18
2023/06/05 01:36:28;;;;;;;13.52;4.43;;;;;;;15.81;96.88;100557.06;5008358;28;19924;-18
2023/06/05 01:38:56;;;;;;;11.40;4.57;;;;;;;15.93;97.07;100563.19;5008422;28;20570;-18
2023/06/05 01:41:22;;;;;;;20.30;5.13;;;;;;;15.74;98.64;100556.41;5007968;28;20786;-19
2023/06/05 01:43:49;;;;;;;9.95;3.95;;;;;;;15.90;96.88;100558.31;5008173;28;20030;-18
2023/06/05 01:46:20;;;;;;;10.40;4.22;;;;;;;15.73;97.33;100560.13;5008063;28;20029;-18
2023/06/05 01:48:46;;;;;;;10.30;3.67;;;;;;;15.74;97.34;100562.59;5008379;28;20030;-18
2023/06/05 01:51:12;;;;;;;13.20;5.05;;;;;;;15.51;98.58;100565.34;5008092;28;20471;-18
2023/06/05 01:53:38;;;;;;;11.10;3.78;;;;;;;15.70;97.73;100561.41;5007938;28;20058;-22
2023/06/05 01:56:06;;;;;;;10.35;3.80;;;;;;;15.61;97.93;100568.22;5007954;28;20053;-21
2023/06/05 01:58:32;;;;;;;10.82;4.18;;;;;;;15.66;98.37;100563.75;5008057;28;20026;-18
2023/06/05 02:00:57;;;;;;;12.95;4.50;;;;;;;15.64;98.67;100557.81;5007969;28;20048;-18
2023/06/05 02:03:23;;;;;;;18.48;4.60;;;;;;;15.58;98.86;100561.47;5007844;28;20029;-19
2023/06/05 02:05:50;;;;;;;10.93;4.60;;;;;;;15.53;99.95;100556.00;5007875;28;20026;-21
2023/06/05 02:08:19;;;;;;;10.80;5.15;;;;;;;15.60;99.51;100559.34;5007778;28;20117;-19
2023/06/05 02:10:52;;;;;;;12.77;4.28;;;;;;;15.70;99.06;100560.59;5007774;28;20037;-19
2023/06/05 02:13:19;;;;;;;13.13;5.30;;;;;;;15.57;100.00;100557.16;5007809;28;20033;-18
2023/06/05 02:15:47;;;;;;;14.80;5.85;;;;;;;15.54;100.00;100567.56;5007464;28;20036;-18
2023/06/05 02:18:13;;;;;;;16.17;6.82;;;;;;;15.56;100.00;100552.81;5007758;28;20022;-18
2023/06/05 02:20:40;;;;;;;16.35;6.35;;;;;;;15.56;99.81;100563.56;4989951;28;20041;-18
2023/06/05 02:23:06;;;;;;;22.25;9.15;;;;;;;15.68;99.60;100569.72;5007303;28;20025;-17
2023/06/05 02:25:31;;;;;;;26.30;11.18;;;;;;;15.71;99.07;100575.66;5007451;28;20087;-20
2023/06/05 02:27:57;;;;;;;25.38;11.23;;;;;;;15.75;99.49;100583.06;5006584;28;20036;-19
2023/06/05 02:30:23;;;;;;;29.30;11.38;;;;;;;16.00;97.68;100588.09;5007336;28;20022;-20
2023/06/05 02:32:56;;;;;;;20.27;8.73;;;;;;;16.14;95.68;100598.53;5007102;28;20038;-18
2023/06/05 02:35:22;;;;;;;19.95;8.38;;;;;;;16.27;95.18;100598.22;5006972;28;20096;-18
2023/06/05 02:37:47;;;;;;;19.15;6.03;;;;;;;15.96;94.60;100603.06;5007583;28;20034;-18
2023/06/05 02:40:14;;;;;;;18.00;6.75;;;;;;;15.92;95.63;100591.16;5007385;28;20029;-18
2023/06/05 02:42:40;;;;;;;12.20;5.00;;;;;;;15.90;95.40;100604.03;5006974;28;20053;-18
2023/06/05 02:45:07;;;;;;;13.55;6.63;;;;;;;15.90;96.80;100606.72;5007179;28;20113;-18
2023/06/05 02:47:32;;;;;;;13.60;5.13;;;;;;;16.11;94.53;100605.22;5007130;28;20084;-23
2023/06/05 02:49:58;;;;;;;16.00;4.90;;;;;;;15.93;96.27;100598.16;5007215;28;20048;-18
2023/06/05 02:52:34;;;;;;;13.80;5.38;;;;;;;15.76;97.86;100605.38;5006668;28;20022;-18
2023/06/05 02:55:01;;;;;;;12.40;4.07;;;;;;;15.73;98.10;100597.78;5007052;28;20018;-18
2023/06/05 02:57:26;;;;;;;13.88;4.15;;;;;;;15.89;97.20;100597.00;5006852;28;20041;-20
2023/06/05 02:59:52;;;;;;;12.20;4.15;;;;;;;16.08;95.61;100600.34;5006719;28;20030;-18
2023/06/05 03:02:17;;;;;;;12.60;4.28;;;;;;;16.14;94.73;100594.00;5007000;28;20049;-19
2023/06/05 03:04:43;;;;;;;14.15;4.75;;;;;;;15.81;97.30;100600.09;5006781;28;20025;-22
2023/06/05 03:07:09;;;;;;;11.93;4.18;;;;;;;15.58;99.31;100591.03;5006751;28;20030;-18
2023/06/05 03:09:36;;;;;;;9.45;3.97;;;;;;;15.54;99.64;100584.50;5006608;28;20038;-20
2023/06/05 03:12:01;;;;;;;10.57;3.75;;;;;;;15.57;99.51;100593.94;5006924;28;20057;-18
2023/06/05 03:14:27;;;;;;;10.40;4.15;;;;;;;15.96;97.13;100596.88;5006344;28;20054;-19
2023/06/05 03:16:53;;;;;;;13.32;4.35;;;;;;;16.24;94.97;100604.94;5006599;28;20654;-18
2023/06/05 03:19:19;;;;;;;16.67;4.53;;;;;;;16.04;96.29;100608.06;5006398;28;20089;-19
2023/06/05 03:21:45;;;;;;;10.15;3.67;;;;;;;16.12;96.59;100597.94;5006361;28;20041;-18
2023/06/05 03:24:14;;;;;;;11.40;3.90;;;;;;;15.92;96.85;100582.28;5006151;28;20048;-18
2023/06/05 03:26:40;;;;;;;14.07;4.28;;;;;;;15.86;97.95;100595.63;5006203;28;20560;-18
2023/06/05 03:29:07;;;;;;;11.05;3.55;;;;;;;15.75;99.52;100587.59;5006490;28;20037;-18
2023/06/05 03:31:33;;;;;;;8.95;2.95;;;;;;;15.94;97.52;100586.38;5006020;28;20034;-18
2023/06/05 03:33:59;;;;;;;9.15;3.35;;;;;;;15.91;99.08;100594.09;5006412;28;20034;-19
2023/06/05 03:36:25;;;;;;;13.48;3.53;;;;;;;15.99;98.49;100602.59;5005869;28;20052;-18
2023/06/05 03:38:51;;;;;;;11.55;3.50;;;;;;;15.91;97.30;100586.03;5006244;28;20130;-18
2023/06/05 03:41:16;;;;;;;12.93;3.40;;;;;;;15.73;98.24;100592.41;5006401;28;20064;-18
2023/06/05 03:43:42;;;;;;;9.13;3.47;;;;;;;15.73;98.65;100597.78;5006556;28;20030;-18
2023/06/05 03:46:07;;;;;;;10.27;4.05;;;;;;;15.78;97.38;100590.63;5006081;28;20109;-19
2023/06/05 03:48:33;;;;;;;9.13;3.47;;;;;;;15.99;96.86;100591.81;5006245;28;20040;-22
2023/06/05 03:51:00;;;;;;;9.50;3.33;;;;;;;16.17;96.17;100596.19;5005897;28;20034;-19
2023/06/05 03:53:29;;;;;;;8.93;3.43;;;;;;;16.06;98.66;100592.50;5006043;28;20139;-18
2023/06/05 03:55:56;;;;;;;10.48;3.15;;;;;;;16.10;97.18;100586.63;5006085;28;20038;-18
2023/06/05 03:58:23;;;;;;;11.83;3.20;;;;;;;16.07;96.41;100579.84;5005891;28;20084;-18
2023/06/05 04:00:48;;;;;;;9.48;3.10;;;;;;;16.13;95.18;100580.75;5005688;28;20269;-21
2023/06/05 04:03:14;;;;;;;8.07;3.00;;;;;;;16.26;95.50;100577.75;5005739;28;20029;-19
2023/06/05 04:05:40;;;;;;;12.20;3.20;;;;;;;16.08;98.23;100573.44;5005777;28;20332;-18
2023/06/05 04:08:10;;;;;;;11.40;3.30;;;;;;;16.14;97.64;100571.63;5005820;28;20088;-18
2023/06/05 04:10:36;;;;;;;10.55;3.10;;;;;;;16.31;96.62;100577.03;5005518;28;20038;-20
2023/06/05 04:13:02;;;;;;;8.20;2.90;;;;;;;16.13;99.05;100575.38;5005880;28;20091;-19
2023/06/05 04:15:28;;;;;;;10.68;3.13;;;;;;;16.12;98.19;100573.75;5005645;28;20030;-18
2023/06/05 04:17:54;;;;;;;11.38;3.13;;;;;;;16.30;96.39;100576.19;5005679;28;20398;-18
2023/06/05 04:20:20;;;;;;;14.10;3.40;;;;;;;16.23;95.16;100584.44;5005563;28;20045;-18
2023/06/05 04:22:45;;;;;;;9.63;3.03;;;;;;;16.33;94.82;100581.09;5005412;28;20026;-18
2023/06/05 04:25:15;;;;;;;9.48;2.40;;;;;;;16.36;94.23;100585.97;5005194;28;20022;-18
2023/06/05 04:27:42;;;;;;;9.77;3.08;;;;;;;16.17;97.08;100587.28;5005434;28;20030;-19
2023/06/05 04:30:09;;;;;;;7.40;2.90;;;;;;;16.31;95.32;100577.03;5004881;28;20037;-18
2023/06/05 04:32:37;;;;;;;8.80;2.90;;;;;;;16.32;93.57;100574.06;5005712;28;20045;-18
2023/06/05 04:35:11;;;;;;;7.75;2.95;;;;;;;16.43;93.19;100586.66;5005814;28;20111;-19
2023/06/05 04:37:38;;;;;;;9.75;3.03;;;;;;;16.18;94.82;100583.53;5004832;28;20052;-19
2023/06/05 04:40:05;;;;;;;9.38;2.83;;;;;;;16.30;94.09;100576.19;5005219;28;20096;-19
2023/06/05 04:42:32;;;;;;;15.07;3.43;;;;;;;16.35;93.09;100589.75;5005148;28;20045;-18
2023/06/05 04:45:00;;;;;;;10.02;3.35;;;;;;;16.43;93.55;100581.28;5004995;28;20807;-18
2023/06/05 04:47:26;;;;;;;8.45;3.28;;;;;;;16.44;93.87;100572.13;5005111;28;20025;-18
2023/06/05 04:49:53;;;;;;;10.75;2.95;;;;;;;16.32;95.47;100584.84;5005176;28;20141;-19
2023/06/05 04:52:20;;;;;;;8.75;2.92;;;;;;;16.59;94.58;100589.56;5004577;28;20042;-18
2023/06/05 04:54:46;;;;;;;10.02;2.47;;;;;;;16.62;94.15;100589.91;5004810;28;20026;-18
2023/06/05 04:57:11;;;;;;;6.40;2.45;;;;;;;16.67;92.90;100581.06;5004538;28;20084;-21
2023/06/05 04:59:37;;;;;;;6.95;2.90;;;;;;;16.69;92.92;100587.03;5004993;28;20026;-18
2023/06/05 05:02:03;;;;;;;8.55;2.85;;;;;;;16.84;92.56;100589.19;5004915;28;20025;-19
2023/06/05 05:04:29;;;;;;;8.75;2.70;;;;;;;16.89;93.06;100588.44;5005377;28;20025;-18
2023/06/05 05:07:00;;;;;;;7.20;2.88;;;;;;;16.94;90.65;100602.81;5004773;28;20030;-18
2023/06/05 05:09:30;;;;;;;10.43;2.75;;;;;;;16.80;91.53;100596.91;5004663;28;20176;-21
2023/06/05 05:11:55;;;;;;;8.77;3.28;;;;;;;17.12;92.51;100598.16;5004341;28;20060;-18
2023/06/05 05:14:21;;;;;;;10.98;2.78;;;;;;;17.15;88.36;100603.88;5004380;28;20017;-18
2023/06/05 05:16:47;;;;;;;7.53;2.88;;;;;;;17.31;88.19;100593.31;5004268;28;20029;-21
2023/06/05 05:19:13;;;;;;;8.70;2.58;;;;;;;17.61;86.51;100601.78;5004329;28;20073;-19
2023/06/05 05:21:39;;;;;;;9.95;2.97;;;;;;;17.52;85.91;100616.75;5004399;28;20112;-18
2023/06/05 05:24:06;;;;;;;10.10;3.45;;;;;;;17.71;85.68;100605.63;5004006;28;20075;-19
2023/06/05 05:26:32;;;;;;;8.88;2.85;;;;;;;17.80;84.32;100614.91;5004269;28;20041;-19
2023/06/05 05:28:57;;;;;;;7.95;2.58;;;;;;;17.74;85.26;100615.94;5004091;28;20030;-19
2023/06/05 05:31:22;;;;;;;8.25;2.50;;;;;;;17.70;86.56;100612.09;5003962;28;20018;-18
2023/06/05 05:33:48;;;;;;;8.70;2.65;;;;;;;17.81;84.57;100616.53;5004184;28;20030;-20
2023/06/05 05:36:14;;;;;;;8.32;3.10;;;;;;;17.77;85.79;100616.22;5004080;28;20437;-18
2023/06/05 05:38:40;;;;;;;8.98;3.20;;;;;;;17.48;86.41;100613.72;5004282;28;20030;-18
2023/06/05 05:41:05;;;;;;;9.80;3.05;;;;;;;17.79;86.30;100615.97;5003860;28;20390;-19
2023/06/05 05:43:31;;;;;;;11.95;3.10;;;;;;;17.82;85.13;100624.38;5004256;28;20044;-18
2023/06/05 05:45:56;;;;;;;10.95;3.63;;;;;;;17.63;85.89;100621.22;5003967;28;20032;-18
2023/06/05 05:48:22;;;;;;;8.55;3.30;;;;;;;17.71;85.12;100624.50;5003945;28;20844;-18
2023/06/05 05:50:48;;;;;;;9.43;3.30;;;;;;;18.13;83.33;100619.31;5004104;28;20016;-19
2023/06/05 05:53:14;;;;;;;15.52;3.78;;;;;;;18.33;81.62;100634.91;5003993;28;20030;-18
2023/06/05 05:55:40;;;;;;;10.32;3.42;;;;;;;18.46;83.08;100637.16;5003923;28;20030;-20
2023/06/05 05:58:06;;;;;;;8.38;3.35;;;;;;;18.36;83.18;100639.78;5003943;28;20026;-21
2023/06/05 06:00:31;;;;;;;14.18;3.42;;;;;;;18.60;80.13;100639.44;5004354;28;20663;-18
2023/06/05 06:02:56;;;;;;;10.70;3.45;;;;;;;18.62;81.27;100640.00;5005071;28;20037;-18
2023/06/05 06:05:22;;;;;;;8.43;3.08;;;;;;;18.72;81.03;100631.97;5007505;28;20026;-18
2023/06/05 06:07:48;;;;;;;7.03;2.90;;;;;;;18.69;80.11;100632.47;5007097;28;20448;-19
2023/06/05 06:10:13;;;;;;;7.70;3.28;;;;;;;19.00;77.41;100628.13;5007120;28;20033;-21
2023/06/05 06:12:41;;;;;;;9.02;3.13;;;;;;;18.71;79.27;100637.63;5007116;28;20539;-18
2023/06/05 06:15:07;;;;;;;25.23;3.92;;;;;;;18.95;78.82;100627.28;5007302;28;20026;-18
2023/06/05 06:17:33;;;;;;;10.63;3.35;;;;;;;19.31;76.13;100632.88;5007202;28;20026;-24
2023/06/05 06:19:59;;;;;;;8.25;3.60;;;;;;;19.68;75.10;100636.28;5007635;28;20032;-23
2023/06/05 06:22:26;;;;;;;9.05;3.47;;;;;;;19.90;75.20;100640.72;5007490;28;20101;-18
2023/06/05 06:24:52;;;;;;;8.98;3.70;;;;;;;20.27;72.15;100639.69;5007572;28;20038;-19
2023/06/05 06:27:17;;;;;;;8.27;3.40;;;;;;;20.05;73.38;100632.63;5007817;28;20030;-19
2023/06/05 06:29:54;;;;;;;8.95;3.53;;;;;;;20.17;73.85;100634.28;5007361;28;20025;-20
2023/06/05 06:32:20;;;;;;;9.27;3.20;;;;;;;20.28;73.82;100633.19;5007626;28;20440;-18
2023/06/05 06:34:46;;;;;;;8.98;3.13;;;;;;;20.54;71.73;100631.31;5007488;28;20034;-18
2023/06/05 06:37:15;;;;;;;6.68;3.25;;;;;;;20.91;69.08;100632.91;5007292;28;20480;-19
2023/06/05 06:39:44;;;;;;;9.52;3.45;;;;;;;20.93;69.52;100628.03;5007073;28;20053;-18
2023/06/05 06:42:10;;;;;;;13.85;5.40;;;;;;;21.27;72.25;100639.06;5007186;28;20046;-18
2023/06/05 06:44:36;;;;;;;13.68;5.32;;;;;;;21.57;76.71;100629.19;5007272;28;20461;-18
2023/06/05 06:47:02;;;;;;;6.93;3.65;;;;;;;21.55;70.14;100638.72;5007358;28;20116;-19
2023/06/05 06:49:28;;;;;;;9.32;3.50;;;;;;;21.74;67.45;100637.00;5007208;28;20033;-19
2023/06/05 06:51:53;;;;;;;7.28;3.28;;;;;;;21.58;67.96;100630.84;5005789;28;20472;-19
2023/06/05 06:54:19;;;;;;;13.68;7.43;;;;;;;21.88;76.42;100629.03;4988000;28;20509;-19
2023/06/05 06:56:45;;;;;;;10.25;3.45;;;;;;;22.12;68.53;100629.16;4987354;28;20580;-18
2023/06/05 06:59:14;;;;;;;12.48;3.95;;;;;;;22.59;68.68;100632.38;4987364;28;20053;-18
2023/06/05 07:01:44;;;;;;;11.60;5.65;;;;;;;22.38;68.50;100629.81;4987561;28;20112;-19
2023/06/05 07:04:09;;;;;;;6.25;2.95;;;;;;;22.35;68.56;100627.69;4987521;28;20039;-19
2023/06/05 07:06:35;;;;;;;10.90;3.63;;;;;;;22.11;69.76;100632.16;4987094;28;20030;-18
2023/06/05 07:09:00;;;;;;;10.05;3.90;;;;;;;21.97;68.35;100627.38;4987132;28;20102;-19
2023/06/05 07:11:26;;;;;;;8.77;3.25;;;;;;;21.78;69.50;100639.97;4987002;28;20029;-19
2023/06/05 07:13:52;;;;;;;13.02;4.15;;;;;;;21.76;70.62;100636.72;4986822;28;20022;-19
2023/06/05 07:16:18;;;;;;;7.10;3.00;;;;;;;21.82;67.36;100639.13;4987355;28;20081;-19
2023/06/05 07:18:43;;;;;;;8.57;3.42;;;;;;;21.66;69.63;100632.97;4986746;28;20027;-19
2023/06/05 07:21:09;;;;;;;10.27;3.30;;;;;;;21.89;68.15;100630.69;4986823;28;20113;-19
2023/06/05 07:23:36;;;;;;;17.52;4.20;;;;;;;22.06;66.53;100630.28;4986733;28;20034;-18
2023/06/05 07:26:02;;;;;;;;;;;;;;;22.11;70.75;100621.28;4987313;28;20035;-22
2023/06/05 07:28:27;;;;;;;9.60;3.57;;;;;;;22.14;68.47;100632.41;4986811;28;19929;-19
2023/06/05 07:30:53;;;;;;;7.75;3.58;;;;;;;22.38;68.15;100621.66;4986619;28;20773;-19
2023/06/05 07:33:18;;;;;;;16.35;4.53;;;;;;;22.37;68.16;100614.63;4986805;28;20030;-19
2023/06/05 07:35:45;;;;;;;10.63;3.28;;;;;;;22.37;68.52;100619.22;4986449;28;20030;-18
2023/06/05 07:38:10;;;;;;;13.75;3.72;;;;;;;22.48;69.60;100620.78;4986646;28;20493;-18
2023/06/05 07:40:36;;;;;;;8.77;3.38;;;;;;;22.71;65.76;100619.19;5000845;28;20037;-18
2023/06/05 07:43:01;;;;;;;7.43;3.05;;;;;;;22.76;66.54;100627.31;5006248;28;20497;-18
2023/06/05 07:45:26;;;;;;;11.10;3.13;;;;;;;22.54;66.73;100624.28;5005891;28;20022;-18
2023/06/05 07:47:52;;;;;;;10.32;3.05;;;;;;;22.68;66.79;100622.50;5005972;28;20076;-19
2023/06/05 07:50:17;;;;;;;8.82;3.30;;;;;;;22.69;66.38;100615.97;5005988;28;20117;-18
2023/06/05 07:52:43;;;;;;;8.70;3.47;;;;;;;22.83;65.35;100616.91;5005720;28;20136;-18
2023/06/05 07:55:08;;;;;;;9.98;2.92;;;;;;;23.18;64.27;100623.09;5005745;28;20140;-18
2023/06/05 07:57:34;;;;;;;8.48;3.13;;;;;;;22.79;65.70;100625.94;5006029;28;20038;-19
2023/06/05 08:00:00;;;;;;;8.40;2.95;;;;;;;23.10;65.85;100631.88;5005802;28;20056;-19
2023/06/05 08:02:25;;;;;;;10.63;3.53;;;;;;;23.14;65.29;100626.69;5005700;28;20026;-17
2023/06/05 08:04:50;;;;;;;10.02;2.88;;;;;;;23.45;62.88;100621.69;5005824;28;20461;-18
2023/06/05 08:07:16;;;;;;;8.85;3.38;;;;;;;23.41;63.47;100624.16;5005570;28;20120;-18
2023/06/05 08:09:41;;;;;;;6.13;2.95;;;;;;;23.37;63.58;100619.59;5005626;28;20088;-19
2023/06/05 08:12:07;;;;;;;8.82;3.20;;;;;;;23.74;63.11;100623.47;5004336;28;20022;-19
2023/06/05 08:14:34;;;;;;;7.15;2.80;;;;;;;23.83;63.38;100621.75;5005439;28;20844;-25
2023/06/05 08:17:00;;;;;;;8.68;2.60;;;;;;;24.00;59.68;100619.31;5005799;28;20026;-19
2023/06/05 08:19:25;;;;;;;9.48;2.80;;;;;;;24.04;61.49;100623.06;5005046;28;20041;-19
2023/06/05 08:21:53;;;;;;;7.45;2.80;;;;;;;23.71;60.82;100615.91;5005650;28;20041;-18
2023/06/05 08:24:19;;;;;;;10.57;3.60;;;;;;;23.56;60.40;100606.84;5005269;28;20421;-19
2023/06/05 08:26:45;;;;;;;7.72;3.10;;;;;;;23.78;62.89;100611.75;5004456;28;20503;-20
2023/06/05 08:29:12;;;;;;;11.07;2.88;;;;;;;24.18;61.77;100608.72;5005009;28;20494;-18
2023/06/05 08:31:37;;;;;;;8.90;2.93;;;;;;;24.35;59.87;100617.13;5004918;28;20022;-18
2023/06/05 08:34:03;;;;;;;7.22;2.85;;;;;;;24.32;57.93;100617.75;5005191;28;20032;-20
2023/06/05 08:36:28;;;;;;;6.47;3.13;;;;;;;24.47;58.10;100614.75;5003524;28;20390;-18
2023/06/05 08:38:54;;;;;;;7.00;3.17;;;;;;;24.51;61.24;100601.38;5005159;28;20609;-19
2023/06/05 08:41:19;;;;;;;9.43;3.05;;;;;;;24.37;60.29;100614.13;5004616;28;20396;-18
2023/06/05 08:43:45;;;;;;;7.55;3.47;;;;;;;24.43;57.92;100608.28;5005280;28;20091;-18
2023/06/05 08:46:15;;;;;;;7.07;3.13;;;;;;;25.04;55.85;100605.59;5005094;28;20030;-19
2023/06/05 08:48:46;;;;;;;8.10;3.17;;;;;;;25.35;55.76;100611.25;5004879;28;20169;-20
2023/06/05 08:51:16;;;;;;;7.68;3.17;;;;;;;25.43;57.47;100591.41;5004758;28;20520;-18
2023/06/05 08:53:47;;;;;;;8.60;3.30;;;;;;;25.66;58.50;100600.50;5005041;28;20088;-19
2023/06/05 08:56:13;;;;;;;6.55;2.90;;;;;;;25.63;54.13;100606.56;5004840;28;20026;-19
2023/06/05 08:58:40;;;;;;;6.18;2.75;;;;;;;25.52;53.73;100590.69;5005431;28;20030;-18
2023/06/05 09:01:05;;;;;;;8.50;3.13;;;;;;;25.89;54.53;100596.97;5004643;28;20030;-19
2023/06/05 09:03:33;;;;;;;7.10;2.92;;;;;;;25.95;52.86;100604.78;5005489;28;20038;-19
2023/06/05 09:05:58;;;;;;;8.00;2.70;;;;;;;25.95;54.28;100599.31;5004907;28;20080;-22
2023/06/05 09:08:32;;;;;;;9.23;3.33;;;;;;;25.82;52.70;100592.75;5004739;28;20441;-18
2023/06/05 09:11:23;;;;;;;9.13;3.42;;;;;;;25.97;52.50;100597.09;5004989;28;20041;-19
2023/06/05 09:13:49;;;;;;;12.52;4.53;;;;;;;25.81;47.72;100591.13;5004587;28;20592;-20
2023/06/05 09:16:14;;;;;;;6.15;2.13;;;;;;;25.42;45.87;100592.56;5005093;28;20551;-18
2023/06/05 09:18:56;;;;;;;5.22;2.33;;;;;;;25.50;48.12;100573.81;5004747;28;20057;-18
2023/06/05 09:21:28;;;;;;;6.28;2.22;;;;;;;25.81;44.69;100590.34;5004360;28;20037;-18
2023/06/05 09:24:09;;;;;;;6.75;2.95;;;;;;;26.24;46.41;100587.16;5004650;28;20463;-17
2023/06/05 09:26:55;;;;;;;5.13;2.17;;;;;;;26.36;44.58;100589.34;5004860;28;20044;-18
2023/06/05 09:29:38;;;;;;;7.50;2.70;;;;;;;26.70;43.89;100588.72;5004707;28;20057;-18
2023/06/05 09:32:09;;;;;;;5.90;3.00;;;;;;;26.80;45.46;100587.63;4987760;28;20125;-17
2023/06/05 09:34:39;;;;;;;5.28;2.42;;;;;;;27.00;42.61;100586.28;5005220;28;20116;-18
2023/06/05 09:37:09;;;;;;;7.25;2.60;;;;;;;26.91;42.07;100588.16;5007034;28;20021;-17
2023/06/05 09:39:39;;;;;;;6.90;2.72;;;;;;;26.15;42.93;100572.59;5008682;28;20036;-17
2023/06/05 09:42:05;;;;;;;6.15;2.65;;;;;;;26.76;42.85;100570.25;5008956;28;20524;-17
2023/06/05 09:44:32;;;;;;;8.23;2.38;;;;;;;26.53;43.32;100561.25;5009390;28;20029;-28
2023/06/05 09:47:08;;;;;;;9.55;2.60;;;;;;;26.65;43.05;100570.53;5009046;28;20030;-17
2023/06/05 09:49:40;;;;;;;7.95;2.30;;;;;;;26.33;45.46;100551.66;5009006;28;20136;-26
2023/06/05 09:52:10;;;;;;;6.55;2.40;;;;;;;26.68;44.69;100549.13;5009122;28;20065;-19
2023/06/05 09:54:37;;;;;;;5.45;2.45;;;;;;;26.86;44.86;100554.34;5008839;28;20025;-18
2023/06/05 09:57:05;;;;;;;8.30;2.80;;;;;;;27.42;43.10;100559.31;5008988;28;20501;-22
2023/06/05 09:59:32;;;;;;;7.20;2.63;;;;;;;27.25;43.07;100560.13;5008769;28;20038;-17
2023/06/05 10:02:01;;;;;;;5.13;2.35;;;;;;;27.75;41.84;100562.44;5008556;28;20022;-17
2023/06/05 10:04:28;;;;;;;13.55;3.92;;;;;;;27.60;43.40;100555.50;5008793;28;20056;-17
2023/06/05 10:07:04;;;;;;;5.63;2.58;;;;;;;28.17;40.39;100559.19;5008947;28;20033;-18
2023/06/05 10:09:33;;;;;;;5.55;2.30;;;;;;;28.11;39.42;100552.25;5008960;28;20033;-18
2023/06/05 10:12:00;;;;;;;5.20;2.70;;;;;;;28.03;39.54;100543.75;5008415;28;20648;-18
2023/06/05 10:14:25;;;;;;;4.70;2.35;;;;;;;27.56;41.78;100549.03;5002298;28;20034;-18
2023/06/05 10:16:51;;;;;;;5.35;2.20;;;;;;;27.61;41.41;100529.69;4988146;28;20429;-18
2023/06/05 10:19:22;;;;;;;4.38;2.40;;;;;;;27.87;40.59;100539.06;5005595;28;20026;-19
2023/06/05 10:21:48;;;;;;;7.43;2.38;;;;;;;27.83;40.92;100527.94;5008007;28;20026;-19
2023/06/05 10:24:22;;;;;;;6.18;2.53;;;;;;;27.96;40.81;100521.47;5008160;28;20040;-18
2023/06/05 10:27:18;;;;;;;7.53;3.08;;;;;;;27.82;40.93;100531.78;5008019;28;20029;-19
2023/06/05 10:30:08;;;;;;;5.97;2.25;;;;;;;27.62;41.56;100528.59;5008350;28;20033;-18
2023/06/05 10:33:12;;;;;;;12.73;3.10;;;;;;;27.73;41.19;100537.28;5008328;28;20026;-21
2023/06/05 10:36:00;;;;;;;6.53;2.90;;;;;;;27.47;40.10;100539.22;4986878;28;20046;-18
2023/06/05 10:38:27;;;;;;;5.30;2.50;;;;;;;27.75;39.42;100529.53;5007996;28;20120;-18
2023/06/05 10:40:53;;;;;;;6.13;2.87;;;;;;;28.14;40.54;100535.97;5007968;28;20042;-18
2023/06/05 10:43:32;;;;;;;7.30;2.42;;;;;;;28.45;37.35;100538.44;5007736;28;20053;-18
2023/06/05 10:46:32;;;;;;;6.65;2.83;;;;;;;28.63;38.22;100524.72;5007981;28;20038;-18
2023/06/05 10:49:04;;;;;;;6.95;2.47;;;;;;;28.62;37.04;100523.09;5007232;28;20033;-19
2023/06/05 10:51:49;;;;;;;4.53;2.40;;;;;;;29.15;38.52;100521.69;5007703;28;20496;-19
2023/06/05 10:54:23;;;;;;;6.20;2.47;;;;;;;29.22;37.14;100515.69;5007664;28;20497;-18
2023/06/05 10:56:52;;;;;;;5.10;2.40;;;;;;;29.82;37.04;100519.91;5007689;28;20030;-18
2023/06/05 10:59:22;;;;;;;4.05;2.25;;;;;;;29.72;36.32;100522.25;5007680;28;20040;-17
2023/06/05 11:02:15;;;;;;;6.20;2.45;;;;;;;29.56;34.74;100528.34;5007367;28;20074;-21
2023/06/05 11:04:46;;;;;;;5.97;2.55;;;;;;;29.95;35.16;100534.47;5007546;28;20080;-18
2023/06/05 11:07:26;;;;;;;7.30;2.75;;;;;;;30.43;32.03;100515.72;5007380;28;20041;-18
2023/06/05 11:10:15;;;;;;;5.72;2.50;;;;;;;30.18;33.98;100518.41;5007787;28;20018;-18
2023/06/05 11:12:41;;;;;;;7.97;2.47;;;;;;;29.63;36.17;100509.38;5006849;28;20038;-19
2023/06/05 11:15:11;;;;;;;8.00;2.78;;;;;;;29.44;34.41;100520.03;5007104;28;20123;-19
2023/06/05 11:17:45;;;;;;;7.13;2.28;;;;;;;29.49;34.91;100500.59;5006977;28;20026;-19
2023/06/05 11:20:28;;;;;;;3.95;2.10;;;;;;;30.00;32.94;100506.78;5007326;28;20049;-18
2023/06/05 11:22:56;;;;;;;6.57;2.53;;;;;;;29.99;33.68;100496.13;5006846;28;20057;-18
2023/06/05 11:25:24;;;;;;;6.70;2.20;;;;;;;29.99;33.46;100496.91;5007188;28;20112;-19